sensor_id;sensor_type;location;lat;lon;timestamp;temperature;humidity
35043;DHT22;21230;51.170;17.024;2022-11-20T00:02:10;-4.00;99.90
35043;DHT22;21230;51.170;17.024;2022-11-20T00:04:36;-4.10;99.90
35043;DHT22;21230;51.170;17.024;2022-11-20T00:07:02;-4.10;99.90
35043;DHT22;21230;51.170;17.024;2022-11-20T00:09:36;-4.10;99.90
35043;DHT22;21230;51.170;17.024;2022-11-20T00:12:07;-4.20;99.90
35043;DHT22;21230;51.170;17.024;2022-11-20T00:14:33;-4.10;99.90
35043;DHT22;21230;51.170;17.024;2022-11-20T00:17:07;-4.10;99.90
35043;DHT22;21230;51.170;17.024;2022-11-20T00:19:33;-4.10;99.90
35043;DHT22;21230;51.170;17.024;2022-11-20T00:21:59;-4.10;99.90
35043;DHT22;21230;51.170;17.024;2022-11-20T00:24:24;-4.10;99.90
35043;DHT22;21230;51.170;17.024;2022-11-20T00:26:50;-4.10;99.90
35043;DHT22;21230;51.170;17.024;2022-11-20T00:29:16;-4.10;99.90
35043;DHT22;21230;51.170;17.024;2022-11-20T00:31:41;-4.10;99.90
35043;DHT22;21230;51.170;17.024;2022-11-20T00:34:14;-4.10;99.90
35043;DHT22;21230;51.170;17.024;2022-11-20T00:36:40;-4.30;99.90
35043;DHT22;21230;51.170;17.024;2022-11-20T00:39:06;-4.30;99.90
35043;DHT22;21230;51.170;17.024;2022-11-20T00:41:31;-4.30;99.90
35043;DHT22;21230;51.170;17.024;2022-11-20T00:43:57;-4.30;99.90
35043;DHT22;21230;51.170;17.024;2022-11-20T00:46:29;-4.30;99.90
35043;DHT22;21230;51.170;17.024;2022-11-20T00:48:54;-4.50;99.90
35043;DHT22;21230;51.170;17.024;2022-11-20T00:51:22;-4.50;99.90
35043;DHT22;21230;51.170;17.024;2022-11-20T00:53:48;-4.50;99.90
35043;DHT22;21230;51.170;17.024;2022-11-20T00:56:14;-4.40;99.90
35043;DHT22;21230;51.170;17.024;2022-11-20T00:58:41;-4.40;99.90
35043;DHT22;21230;51.170;17.024;2022-11-20T01:03:33;-4.30;99.90
35043;DHT22;21230;51.170;17.024;2022-11-20T01:06:01;-4.40;99.90
35043;DHT22;21230;51.170;17.024;2022-11-20T01:08:31;-4.40;99.90
35043;DHT22;21230;51.170;17.024;2022-11-20T01:11:04;-4.30;99.90
35043;DHT22;21230;51.170;17.024;2022-11-20T01:13:30;-4.30;99.90
35043;DHT22;21230;51.170;17.024;2022-11-20T01:16:18;-4.30;99.90
35043;DHT22;21230;51.170;17.024;2022-11-20T01:18:45;-4.40;99.90
35043;DHT22;21230;51.170;17.024;2022-11-20T01:21:12;-4.50;99.90
35043;DHT22;21230;51.170;17.024;2022-11-20T01:23:39;-4.50;99.90
35043;DHT22;21230;51.170;17.024;2022-11-20T01:29:00;-4.40;99.90
35043;DHT22;21230;51.170;17.024;2022-11-20T01:31:27;-4.30;99.90
35043;DHT22;21230;51.170;17.024;2022-11-20T01:33:54;-4.30;99.90
35043;DHT22;21230;51.170;17.024;2022-11-20T01:36:20;-4.30;99.90
35043;DHT22;21230;51.170;17.024;2022-11-20T01:38:46;-4.30;99.90
35043;DHT22;21230;51.170;17.024;2022-11-20T01:41:13;-4.30;99.90
35043;DHT22;21230;51.170;17.024;2022-11-20T01:44:02;-4.50;99.90
35043;DHT22;21230;51.170;17.024;2022-11-20T01:46:31;-4.40;99.90
35043;DHT22;21230;51.170;17.024;2022-11-20T01:53:50;-4.30;99.90
35043;DHT22;21230;51.170;17.024;2022-11-20T01:56:18;-4.20;99.90
35043;DHT22;21230;51.170;17.024;2022-11-20T01:58:46;-4.10;99.90
35043;DHT22;21230;51.170;17.024;2022-11-20T02:01:13;-4.00;99.90
35043;DHT22;21230;51.170;17.024;2022-11-20T02:03:39;-4.00;99.90
35043;DHT22;21230;51.170;17.024;2022-11-20T02:08:50;-3.90;99.90
35043;DHT22;21230;51.170;17.024;2022-11-20T02:11:16;-3.90;99.90
35043;DHT22;21230;51.170;17.024;2022-11-20T02:13:42;-3.90;99.90
35043;DHT22;21230;51.170;17.024;2022-11-20T02:16:21;-3.90;99.90
35043;DHT22;21230;51.170;17.024;2022-11-20T02:18:49;-3.90;99.90
35043;DHT22;21230;51.170;17.024;2022-11-20T02:26:22;-4.10;99.90
35043;DHT22;21230;51.170;17.024;2022-11-20T02:28:48;-4.20;99.90
35043;DHT22;21230;51.170;17.024;2022-11-20T02:31:14;-4.20;99.90
35043;DHT22;21230;51.170;17.024;2022-11-20T02:33:39;-4.10;99.90
35043;DHT22;21230;51.170;17.024;2022-11-20T02:36:05;-4.10;99.90
35043;DHT22;21230;51.170;17.024;2022-11-20T02:38:32;-4.10;99.90
35043;DHT22;21230;51.170;17.024;2022-11-20T02:40:58;-4.10;99.90
35043;DHT22;21230;51.170;17.024;2022-11-20T02:43:24;-4.10;99.90
35043;DHT22;21230;51.170;17.024;2022-11-20T02:45:49;-4.10;99.90
35043;DHT22;21230;51.170;17.024;2022-11-20T02:48:15;-4.20;99.90
35043;DHT22;21230;51.170;17.024;2022-11-20T02:50:40;-4.20;99.90
35043;DHT22;21230;51.170;17.024;2022-11-20T02:53:06;-4.20;99.90
35043;DHT22;21230;51.170;17.024;2022-11-20T02:55:32;-4.20;99.90
35043;DHT22;21230;51.170;17.024;2022-11-20T02:57:57;-4.20;99.90
35043;DHT22;21230;51.170;17.024;2022-11-20T03:00:23;-4.10;99.90
35043;DHT22;21230;51.170;17.024;2022-11-20T03:02:49;-4.10;99.90
35043;DHT22;21230;51.170;17.024;2022-11-20T03:05:14;-4.10;99.90
35043;DHT22;21230;51.170;17.024;2022-11-20T03:07:40;-4.10;99.90
35043;DHT22;21230;51.170;17.024;2022-11-20T03:10:13;-4.10;99.90
35043;DHT22;21230;51.170;17.024;2022-11-20T03:12:39;-4.10;99.90
35043;DHT22;21230;51.170;17.024;2022-11-20T03:15:13;-4.10;99.90
35043;DHT22;21230;51.170;17.024;2022-11-20T03:17:39;-4.10;99.90
35043;DHT22;21230;51.170;17.024;2022-11-20T03:20:05;-4.20;99.90
35043;DHT22;21230;51.170;17.024;2022-11-20T03:22:40;-4.20;99.90
35043;DHT22;21230;51.170;17.024;2022-11-20T03:25:06;-4.30;99.90
35043;DHT22;21230;51.170;17.024;2022-11-20T03:27:33;-4.20;99.90
35043;DHT22;21230;51.170;17.024;2022-11-20T03:30:16;-4.30;99.90
35043;DHT22;21230;51.170;17.024;2022-11-20T03:32:42;-4.30;99.90
35043;DHT22;21230;51.170;17.024;2022-11-20T03:35:07;-4.30;99.90
35043;DHT22;21230;51.170;17.024;2022-11-20T03:37:33;-4.30;99.90
35043;DHT22;21230;51.170;17.024;2022-11-20T03:39:59;-4.40;99.90
35043;DHT22;21230;51.170;17.024;2022-11-20T03:42:30;-4.40;99.90
35043;DHT22;21230;51.170;17.024;2022-11-20T03:45:20;-4.40;99.90
35043;DHT22;21230;51.170;17.024;2022-11-20T03:47:46;-4.50;99.90
35043;DHT22;21230;51.170;17.024;2022-11-20T03:50:12;-4.60;99.90
35043;DHT22;21230;51.170;17.024;2022-11-20T03:52:39;-4.60;99.90
35043;DHT22;21230;51.170;17.024;2022-11-20T03:55:05;-4.70;99.90
35043;DHT22;21230;51.170;17.024;2022-11-20T03:57:31;-4.90;99.90
35043;DHT22;21230;51.170;17.024;2022-11-20T03:59:56;-5.00;99.90
35043;DHT22;21230;51.170;17.024;2022-11-20T04:02:22;-4.90;99.90
35043;DHT22;21230;51.170;17.024;2022-11-20T04:04:48;-4.90;99.90
35043;DHT22;21230;51.170;17.024;2022-11-20T04:07:13;-5.00;99.90
35043;DHT22;21230;51.170;17.024;2022-11-20T04:09:39;-4.90;99.90
35043;DHT22;21230;51.170;17.024;2022-11-20T04:12:05;-5.00;99.90
35043;DHT22;21230;51.170;17.024;2022-11-20T04:14:30;-5.00;99.90
35043;DHT22;21230;51.170;17.024;2022-11-20T04:16:56;-5.00;99.90
35043;DHT22;21230;51.170;17.024;2022-11-20T04:19:21;-5.10;99.90
35043;DHT22;21230;51.170;17.024;2022-11-20T04:21:47;-5.10;99.90
35043;DHT22;21230;51.170;17.024;2022-11-20T04:24:13;-5.20;99.90
35043;DHT22;21230;51.170;17.024;2022-11-20T04:26:39;-5.20;99.90
35043;DHT22;21230;51.170;17.024;2022-11-20T04:29:04;-5.10;99.90
35043;DHT22;21230;51.170;17.024;2022-11-20T04:31:31;-5.10;99.90
35043;DHT22;21230;51.170;17.024;2022-11-20T04:34:02;-5.10;99.90
35043;DHT22;21230;51.170;17.024;2022-11-20T04:36:38;-5.00;99.90
35043;DHT22;21230;51.170;17.024;2022-11-20T04:39:13;-4.80;99.90
35043;DHT22;21230;51.170;17.024;2022-11-20T04:41:40;-4.70;99.90
35043;DHT22;21230;51.170;17.024;2022-11-20T04:44:16;-4.60;99.90
35043;DHT22;21230;51.170;17.024;2022-11-20T04:46:42;-4.60;99.90
35043;DHT22;21230;51.170;17.024;2022-11-20T04:49:08;-4.70;99.90
35043;DHT22;21230;51.170;17.024;2022-11-20T04:51:34;-4.70;99.90
35043;DHT22;21230;51.170;17.024;2022-11-20T04:54:00;-4.70;99.90
35043;DHT22;21230;51.170;17.024;2022-11-20T04:56:34;-4.70;99.90
35043;DHT22;21230;51.170;17.024;2022-11-20T04:59:09;-4.70;99.90
35043;DHT22;21230;51.170;17.024;2022-11-20T05:01:40;-4.70;99.90
35043;DHT22;21230;51.170;17.024;2022-11-20T05:04:12;-4.70;99.90
35043;DHT22;21230;51.170;17.024;2022-11-20T05:06:38;-4.80;99.90
35043;DHT22;21230;51.170;17.024;2022-11-20T05:09:03;-4.80;99.90
35043;DHT22;21230;51.170;17.024;2022-11-20T05:11:29;-4.90;99.90
35043;DHT22;21230;51.170;17.024;2022-11-20T05:14:09;-5.00;99.90
35043;DHT22;21230;51.170;17.024;2022-11-20T05:16:41;-5.10;99.90
35043;DHT22;21230;51.170;17.024;2022-11-20T05:19:07;-5.20;99.90
35043;DHT22;21230;51.170;17.024;2022-11-20T05:21:32;-5.10;99.90
35043;DHT22;21230;51.170;17.024;2022-11-20T05:23:58;-5.10;99.90
35043;DHT22;21230;51.170;17.024;2022-11-20T05:26:44;-5.10;99.90
35043;DHT22;21230;51.170;17.024;2022-11-20T05:29:18;-5.00;99.90
35043;DHT22;21230;51.170;17.024;2022-11-20T05:31:52;-5.00;99.90
35043;DHT22;21230;51.170;17.024;2022-11-20T05:34:18;-5.00;99.90
35043;DHT22;21230;51.170;17.024;2022-11-20T05:36:44;-5.30;99.90
35043;DHT22;21230;51.170;17.024;2022-11-20T05:39:09;-5.60;99.90
35043;DHT22;21230;51.170;17.024;2022-11-20T05:41:35;-5.80;99.90
35043;DHT22;21230;51.170;17.024;2022-11-20T05:44:00;-5.90;99.90
35043;DHT22;21230;51.170;17.024;2022-11-20T05:46:26;-5.90;99.90
35043;DHT22;21230;51.170;17.024;2022-11-20T05:48:52;-5.80;99.90
35043;DHT22;21230;51.170;17.024;2022-11-20T05:51:18;-5.80;99.90
35043;DHT22;21230;51.170;17.024;2022-11-20T05:53:44;-5.80;99.90
35043;DHT22;21230;51.170;17.024;2022-11-20T05:56:13;-5.80;99.90
35043;DHT22;21230;51.170;17.024;2022-11-20T05:58:39;-5.80;99.90
35043;DHT22;21230;51.170;17.024;2022-11-20T06:01:06;-5.90;99.90
35043;DHT22;21230;51.170;17.024;2022-11-20T06:03:32;-5.80;99.90
35043;DHT22;21230;51.170;17.024;2022-11-20T06:05:58;-5.70;99.90
35043;DHT22;21230;51.170;17.024;2022-11-20T06:08:24;-5.70;99.90
35043;DHT22;21230;51.170;17.024;2022-11-20T06:10:50;-5.60;99.90
35043;DHT22;21230;51.170;17.024;2022-11-20T06:13:15;-5.50;99.90
35043;DHT22;21230;51.170;17.024;2022-11-20T06:15:41;-5.40;99.90
35043;DHT22;21230;51.170;17.024;2022-11-20T06:18:06;-5.30;99.90
35043;DHT22;21230;51.170;17.024;2022-11-20T06:20:32;-5.20;99.90
35043;DHT22;21230;51.170;17.024;2022-11-20T06:22:58;-5.10;99.90
35043;DHT22;21230;51.170;17.024;2022-11-20T06:25:23;-5.10;99.90
35043;DHT22;21230;51.170;17.024;2022-11-20T06:27:49;-5.10;99.90
35043;DHT22;21230;51.170;17.024;2022-11-20T06:30:15;-5.20;99.90
35043;DHT22;21230;51.170;17.024;2022-11-20T06:32:40;-5.30;99.90
35043;DHT22;21230;51.170;17.024;2022-11-20T06:35:06;-5.30;99.90
35043;DHT22;21230;51.170;17.024;2022-11-20T06:37:32;-5.30;99.90
35043;DHT22;21230;51.170;17.024;2022-11-20T06:39:57;-5.30;99.90
35043;DHT22;21230;51.170;17.024;2022-11-20T06:42:23;-5.70;99.90
35043;DHT22;21230;51.170;17.024;2022-11-20T06:44:50;-5.60;99.90
35043;DHT22;21230;51.170;17.024;2022-11-20T06:47:15;-5.60;99.90
35043;DHT22;21230;51.170;17.024;2022-11-20T06:49:41;-5.70;99.90
35043;DHT22;21230;51.170;17.024;2022-11-20T06:52:07;-5.70;99.90
35043;DHT22;21230;51.170;17.024;2022-11-20T06:54:32;-5.60;99.90
35043;DHT22;21230;51.170;17.024;2022-11-20T06:56:58;-5.50;99.90
35043;DHT22;21230;51.170;17.024;2022-11-20T06:59:23;-5.50;99.90
35043;DHT22;21230;51.170;17.024;2022-11-20T07:01:49;-5.50;99.90
35043;DHT22;21230;51.170;17.024;2022-11-20T07:04:15;-5.40;99.90
35043;DHT22;21230;51.170;17.024;2022-11-20T07:06:40;-5.40;99.90
35043;DHT22;21230;51.170;17.024;2022-11-20T07:09:06;-5.30;99.90
35043;DHT22;21230;51.170;17.024;2022-11-20T07:11:32;-5.20;99.90
35043;DHT22;21230;51.170;17.024;2022-11-20T07:13:57;-5.10;99.90
35043;DHT22;21230;51.170;17.024;2022-11-20T07:16:23;-4.90;99.90
35043;DHT22;21230;51.170;17.024;2022-11-20T07:18:49;-4.80;99.90
35043;DHT22;21230;51.170;17.024;2022-11-20T07:21:15;-4.60;99.90
35043;DHT22;21230;51.170;17.024;2022-11-20T07:23:40;-4.50;99.90
35043;DHT22;21230;51.170;17.024;2022-11-20T07:26:07;-4.40;99.90
35043;DHT22;21230;51.170;17.024;2022-11-20T07:28:33;-4.30;99.90
35043;DHT22;21230;51.170;17.024;2022-11-20T07:30:59;-4.10;99.90
35043;DHT22;21230;51.170;17.024;2022-11-20T07:33:25;-4.10;99.90
35043;DHT22;21230;51.170;17.024;2022-11-20T07:35:51;-4.10;99.90
35043;DHT22;21230;51.170;17.024;2022-11-20T07:38:17;-4.00;99.90
35043;DHT22;21230;51.170;17.024;2022-11-20T07:40:42;-3.90;99.90
35043;DHT22;21230;51.170;17.024;2022-11-20T07:43:08;-3.80;99.90
35043;DHT22;21230;51.170;17.024;2022-11-20T07:53:02;-3.60;99.90
35043;DHT22;21230;51.170;17.024;2022-11-20T07:55:40;-3.50;99.90
35043;DHT22;21230;51.170;17.024;2022-11-20T07:58:06;-3.40;99.90
35043;DHT22;21230;51.170;17.024;2022-11-20T08:00:32;-3.40;99.90
35043;DHT22;21230;51.170;17.024;2022-11-20T08:03:02;-3.40;99.90
35043;DHT22;21230;51.170;17.024;2022-11-20T08:05:29;-3.30;99.90
35043;DHT22;21230;51.170;17.024;2022-11-20T08:08:01;-3.20;99.90
35043;DHT22;21230;51.170;17.024;2022-11-20T08:10:30;-3.10;99.90
35043;DHT22;21230;51.170;17.024;2022-11-20T08:12:56;-3.00;99.90
35043;DHT22;21230;51.170;17.024;2022-11-20T08:15:49;-3.00;99.90
35043;DHT22;21230;51.170;17.024;2022-11-20T08:18:37;-2.90;99.90
35043;DHT22;21230;51.170;17.024;2022-11-20T08:21:03;-2.90;99.90
35043;DHT22;21230;51.170;17.024;2022-11-20T08:23:42;-2.80;99.90
35043;DHT22;21230;51.170;17.024;2022-11-20T08:26:10;-2.70;99.90
35043;DHT22;21230;51.170;17.024;2022-11-20T08:28:42;-2.60;99.90
35043;DHT22;21230;51.170;17.024;2022-11-20T08:31:12;-2.50;99.90
35043;DHT22;21230;51.170;17.024;2022-11-20T08:33:41;-2.40;99.90
35043;DHT22;21230;51.170;17.024;2022-11-20T08:36:12;-2.30;99.90
35043;DHT22;21230;51.170;17.024;2022-11-20T08:38:51;-2.20;99.90
35043;DHT22;21230;51.170;17.024;2022-11-20T08:41:21;-2.10;99.90
35043;DHT22;21230;51.170;17.024;2022-11-20T08:43:51;-2.00;99.90
35043;DHT22;21230;51.170;17.024;2022-11-20T08:46:17;-1.90;99.90
35043;DHT22;21230;51.170;17.024;2022-11-20T08:48:43;-1.80;99.90
35043;DHT22;21230;51.170;17.024;2022-11-20T08:51:09;-1.80;99.90
35043;DHT22;21230;51.170;17.024;2022-11-20T08:53:35;-1.60;99.90
35043;DHT22;21230;51.170;17.024;2022-11-20T08:56:01;-1.50;99.90
35043;DHT22;21230;51.170;17.024;2022-11-20T08:58:26;-1.50;99.90
35043;DHT22;21230;51.170;17.024;2022-11-20T09:00:52;-1.40;99.90
35043;DHT22;21230;51.170;17.024;2022-11-20T09:03:18;-1.30;99.90
35043;DHT22;21230;51.170;17.024;2022-11-20T09:05:44;-1.30;99.90
35043;DHT22;21230;51.170;17.024;2022-11-20T09:08:10;-1.20;99.90
35043;DHT22;21230;51.170;17.024;2022-11-20T09:10:35;-1.10;99.90
35043;DHT22;21230;51.170;17.024;2022-11-20T09:13:01;-1.10;99.90
35043;DHT22;21230;51.170;17.024;2022-11-20T09:15:27;-0.90;99.90
35043;DHT22;21230;51.170;17.024;2022-11-20T09:17:53;-0.70;99.90
35043;DHT22;21230;51.170;17.024;2022-11-20T09:20:19;-0.60;99.90
35043;DHT22;21230;51.170;17.024;2022-11-20T09:22:45;-0.60;99.90
35043;DHT22;21230;51.170;17.024;2022-11-20T09:25:11;-0.60;99.90
35043;DHT22;21230;51.170;17.024;2022-11-20T09:27:36;-0.60;99.90
35043;DHT22;21230;51.170;17.024;2022-11-20T09:30:02;-0.60;99.90
35043;DHT22;21230;51.170;17.024;2022-11-20T09:32:28;-0.60;99.90
35043;DHT22;21230;51.170;17.024;2022-11-20T09:34:53;-0.40;99.90
35043;DHT22;21230;51.170;17.024;2022-11-20T09:37:19;-0.30;99.90
35043;DHT22;21230;51.170;17.024;2022-11-20T09:39:45;-0.10;99.90
35043;DHT22;21230;51.170;17.024;2022-11-20T09:47:12;0.20;99.90
35043;DHT22;21230;51.170;17.024;2022-11-20T09:54:44;0.40;99.90
35043;DHT22;21230;51.170;17.024;2022-11-20T09:57:10;0.30;99.90
35043;DHT22;21230;51.170;17.024;2022-11-20T10:02:12;0.20;99.90
35043;DHT22;21230;51.170;17.024;2022-11-20T10:04:38;0.20;99.90
35043;DHT22;21230;51.170;17.024;2022-11-20T10:07:13;0.30;99.90
35043;DHT22;21230;51.170;17.024;2022-11-20T10:09:43;0.40;99.90
35043;DHT22;21230;51.170;17.024;2022-11-20T10:15:03;0.70;99.90
35043;DHT22;21230;51.170;17.024;2022-11-20T10:22:40;0.70;99.90
35043;DHT22;21230;51.170;17.024;2022-11-20T10:25:19;0.80;99.90
35043;DHT22;21230;51.170;17.024;2022-11-20T10:30:12;1.10;99.90
35043;DHT22;21230;51.170;17.024;2022-11-20T10:32:39;1.20;99.90
35043;DHT22;21230;51.170;17.024;2022-11-20T10:35:22;1.30;99.90
35043;DHT22;21230;51.170;17.024;2022-11-20T10:38:17;1.30;99.90
35043;DHT22;21230;51.170;17.024;2022-11-20T10:40:43;1.30;99.90
35043;DHT22;21230;51.170;17.024;2022-11-20T10:43:13;1.30;99.90
35043;DHT22;21230;51.170;17.024;2022-11-20T10:48:19;1.40;99.90
35043;DHT22;21230;51.170;17.024;2022-11-20T10:53:26;1.40;99.90
35043;DHT22;21230;51.170;17.024;2022-11-20T10:55:58;1.40;99.90
35043;DHT22;21230;51.170;17.024;2022-11-20T11:03:41;1.30;99.90
35043;DHT22;21230;51.170;17.024;2022-11-20T11:09:04;1.60;99.90
35043;DHT22;21230;51.170;17.024;2022-11-20T11:11:53;1.60;99.90
35043;DHT22;21230;51.170;17.024;2022-11-20T11:14:24;1.70;99.90
35043;DHT22;21230;51.170;17.024;2022-11-20T11:16:50;1.60;97.40
35043;DHT22;21230;51.170;17.024;2022-11-20T11:19:16;1.60;97.90
35043;DHT22;21230;51.170;17.024;2022-11-20T11:21:54;1.60;96.60
35043;DHT22;21230;51.170;17.024;2022-11-20T11:24:24;1.60;96.10
35043;DHT22;21230;51.170;17.024;2022-11-20T11:26:51;1.50;96.60
35043;DHT22;21230;51.170;17.024;2022-11-20T11:29:23;1.60;96.90
35043;DHT22;21230;51.170;17.024;2022-11-20T11:31:49;1.70;94.80
35043;DHT22;21230;51.170;17.024;2022-11-20T11:34:18;1.90;95.30
35043;DHT22;21230;51.170;17.024;2022-11-20T11:37:17;2.10;96.70
35043;DHT22;21230;51.170;17.024;2022-11-20T11:39:35;2.00;91.80
35043;DHT22;21230;51.170;17.024;2022-11-20T11:42:07;1.90;88.50
35043;DHT22;21230;51.170;17.024;2022-11-20T11:44:37;1.80;89.50
35043;DHT22;21230;51.170;17.024;2022-11-20T11:47:31;1.80;90.00
35043;DHT22;21230;51.170;17.024;2022-11-20T11:55:13;1.70;85.60
35043;DHT22;21230;51.170;17.024;2022-11-20T11:57:54;1.70;88.50
35043;DHT22;21230;51.170;17.024;2022-11-20T12:00:23;1.80;88.10
35043;DHT22;21230;51.170;17.024;2022-11-20T12:02:53;1.80;82.40
35043;DHT22;21230;51.170;17.024;2022-11-20T12:05:30;1.70;83.30
35043;DHT22;21230;51.170;17.024;2022-11-20T12:13:30;1.80;88.00
35043;DHT22;21230;51.170;17.024;2022-11-20T12:15:58;1.90;86.80
35043;DHT22;21230;51.170;17.024;2022-11-20T12:18:23;2.00;86.40
35043;DHT22;21230;51.170;17.024;2022-11-20T12:25:56;2.20;86.60
35043;DHT22;21230;51.170;17.024;2022-11-20T12:28:30;2.30;86.20
35043;DHT22;21230;51.170;17.024;2022-11-20T12:47:42;2.20;90.10
35043;DHT22;21230;51.170;17.024;2022-11-20T12:58:06;2.00;91.70
35043;DHT22;21230;51.170;17.024;2022-11-20T13:00:36;2.00;92.60
35043;DHT22;21230;51.170;17.024;2022-11-20T13:03:14;2.10;92.40
35043;DHT22;21230;51.170;17.024;2022-11-20T13:05:54;2.30;93.20
35043;DHT22;21230;51.170;17.024;2022-11-20T13:08:35;2.20;93.10
35043;DHT22;21230;51.170;17.024;2022-11-20T13:11:17;2.30;93.00
35043;DHT22;21230;51.170;17.024;2022-11-20T13:19:17;2.30;93.20
35043;DHT22;21230;51.170;17.024;2022-11-20T13:21:44;2.30;94.70
35043;DHT22;21230;51.170;17.024;2022-11-20T13:29:29;1.90;96.90
35043;DHT22;21230;51.170;17.024;2022-11-20T13:32:06;1.90;98.30
35043;DHT22;21230;51.170;17.024;2022-11-20T13:34:32;1.90;98.50
35043;DHT22;21230;51.170;17.024;2022-11-20T13:36:59;1.90;98.30
35043;DHT22;21230;51.170;17.024;2022-11-20T13:39:45;1.90;99.20
35043;DHT22;21230;51.170;17.024;2022-11-20T13:44:42;1.70;99.90
35043;DHT22;21230;51.170;17.024;2022-11-20T13:47:22;1.80;99.90
35043;DHT22;21230;51.170;17.024;2022-11-20T13:49:48;1.80;99.90
35043;DHT22;21230;51.170;17.024;2022-11-20T13:52:29;1.90;99.90
35043;DHT22;21230;51.170;17.024;2022-11-20T13:57:41;2.00;99.50
35043;DHT22;21230;51.170;17.024;2022-11-20T14:00:18;1.90;99.70
35043;DHT22;21230;51.170;17.024;2022-11-20T14:02:44;2.00;99.10
35043;DHT22;21230;51.170;17.024;2022-11-20T14:05:18;1.90;99.90
35043;DHT22;21230;51.170;17.024;2022-11-20T14:07:45;1.90;99.70
35043;DHT22;21230;51.170;17.024;2022-11-20T14:10:21;1.90;99.90
35043;DHT22;21230;51.170;17.024;2022-11-20T14:12:47;1.90;99.90
35043;DHT22;21230;51.170;17.024;2022-11-20T14:15:27;1.70;99.90
35043;DHT22;21230;51.170;17.024;2022-11-20T14:17:53;1.70;99.90
35043;DHT22;21230;51.170;17.024;2022-11-20T14:20:18;1.60;99.90
35043;DHT22;21230;51.170;17.024;2022-11-20T14:22:49;1.50;99.90
35043;DHT22;21230;51.170;17.024;2022-11-20T14:27:51;1.40;99.90
35043;DHT22;21230;51.170;17.024;2022-11-20T14:30:27;1.40;99.90
35043;DHT22;21230;51.170;17.024;2022-11-20T14:32:55;1.30;99.90
35043;DHT22;21230;51.170;17.024;2022-11-20T14:35:33;1.30;99.90
35043;DHT22;21230;51.170;17.024;2022-11-20T14:38:00;1.20;99.90
35043;DHT22;21230;51.170;17.024;2022-11-20T14:40:28;1.20;99.90
35043;DHT22;21230;51.170;17.024;2022-11-20T14:42:54;1.00;99.90
35043;DHT22;21230;51.170;17.024;2022-11-20T14:45:32;1.00;99.90
35043;DHT22;21230;51.170;17.024;2022-11-20T14:48:04;1.00;99.90
35043;DHT22;21230;51.170;17.024;2022-11-20T14:50:33;0.90;99.90
35043;DHT22;21230;51.170;17.024;2022-11-20T14:52:59;0.90;99.90
35043;DHT22;21230;51.170;17.024;2022-11-20T14:55:34;0.90;99.90
35043;DHT22;21230;51.170;17.024;2022-11-20T14:58:27;0.80;99.90
35043;DHT22;21230;51.170;17.024;2022-11-20T15:01:04;0.70;99.90
35043;DHT22;21230;51.170;17.024;2022-11-20T15:03:36;0.60;99.90
35043;DHT22;21230;51.170;17.024;2022-11-20T15:06:03;0.60;99.90
35043;DHT22;21230;51.170;17.024;2022-11-20T15:08:29;0.60;99.90
35043;DHT22;21230;51.170;17.024;2022-11-20T15:10:55;0.60;99.90
35043;DHT22;21230;51.170;17.024;2022-11-20T15:13:37;0.60;99.90
35043;DHT22;21230;51.170;17.024;2022-11-20T15:16:04;0.50;99.90
35043;DHT22;21230;51.170;17.024;2022-11-20T15:18:40;0.50;99.90
35043;DHT22;21230;51.170;17.024;2022-11-20T15:21:27;0.40;99.90
35043;DHT22;21230;51.170;17.024;2022-11-20T15:23:53;0.40;99.90
35043;DHT22;21230;51.170;17.024;2022-11-20T15:26:23;0.30;99.90
35043;DHT22;21230;51.170;17.024;2022-11-20T15:28:50;0.20;99.90
35043;DHT22;21230;51.170;17.024;2022-11-20T15:31:16;0.20;99.90
35043;DHT22;21230;51.170;17.024;2022-11-20T15:33:42;0.20;99.90
35043;DHT22;21230;51.170;17.024;2022-11-20T15:36:08;0.10;99.90
35043;DHT22;21230;51.170;17.024;2022-11-20T15:38:34;0.10;99.90
35043;DHT22;21230;51.170;17.024;2022-11-20T15:41:00;0.10;99.90
35043;DHT22;21230;51.170;17.024;2022-11-20T15:43:25;0.00;99.90
35043;DHT22;21230;51.170;17.024;2022-11-20T15:45:52;0.00;99.90
35043;DHT22;21230;51.170;17.024;2022-11-20T15:48:20;-0.10;99.90
35043;DHT22;21230;51.170;17.024;2022-11-20T15:53:17;-0.10;99.90
35043;DHT22;21230;51.170;17.024;2022-11-20T15:55:49;-0.10;99.90
35043;DHT22;21230;51.170;17.024;2022-11-20T15:58:15;-0.10;99.90
35043;DHT22;21230;51.170;17.024;2022-11-20T16:00:42;-0.20;99.90
35043;DHT22;21230;51.170;17.024;2022-11-20T16:03:12;-0.20;99.90
35043;DHT22;21230;51.170;17.024;2022-11-20T16:05:37;-0.30;99.90
35043;DHT22;21230;51.170;17.024;2022-11-20T16:08:03;-0.40;99.90
35043;DHT22;21230;51.170;17.024;2022-11-20T16:10:29;-0.40;99.90
35043;DHT22;21230;51.170;17.024;2022-11-20T16:12:55;-0.40;99.90
35043;DHT22;21230;51.170;17.024;2022-11-20T16:15:39;-0.40;99.90
35043;DHT22;21230;51.170;17.024;2022-11-20T16:18:11;-0.40;99.90
35043;DHT22;21230;51.170;17.024;2022-11-20T16:20:37;-0.50;99.90
35043;DHT22;21230;51.170;17.024;2022-11-20T16:23:03;-0.50;99.90
35043;DHT22;21230;51.170;17.024;2022-11-20T16:25:29;-0.50;99.90
35043;DHT22;21230;51.170;17.024;2022-11-20T16:27:55;-0.50;99.90
35043;DHT22;21230;51.170;17.024;2022-11-20T16:30:20;-0.50;99.90
35043;DHT22;21230;51.170;17.024;2022-11-20T16:32:46;-0.50;99.90
35043;DHT22;21230;51.170;17.024;2022-11-20T16:35:11;-0.50;99.90
35043;DHT22;21230;51.170;17.024;2022-11-20T16:37:37;-0.60;99.90
35043;DHT22;21230;51.170;17.024;2022-11-20T16:40:04;-0.60;99.90
35043;DHT22;21230;51.170;17.024;2022-11-20T16:44:58;-0.70;99.90
35043;DHT22;21230;51.170;17.024;2022-11-20T16:47:24;-0.70;99.90
35043;DHT22;21230;51.170;17.024;2022-11-20T16:49:49;-0.80;99.90
35043;DHT22;21230;51.170;17.024;2022-11-20T16:52:15;-0.90;99.90
35043;DHT22;21230;51.170;17.024;2022-11-20T16:54:41;-0.90;99.90
35043;DHT22;21230;51.170;17.024;2022-11-20T16:57:06;-0.90;99.90
35043;DHT22;21230;51.170;17.024;2022-11-20T16:59:32;-1.00;99.90
35043;DHT22;21230;51.170;17.024;2022-11-20T17:01:57;-1.00;99.90
35043;DHT22;21230;51.170;17.024;2022-11-20T17:04:27;-1.00;99.90
35043;DHT22;21230;51.170;17.024;2022-11-20T17:06:54;-1.00;99.90
35043;DHT22;21230;51.170;17.024;2022-11-20T17:09:20;-1.10;99.90
35043;DHT22;21230;51.170;17.024;2022-11-20T17:11:47;-1.00;99.90
35043;DHT22;21230;51.170;17.024;2022-11-20T17:14:12;-1.00;99.90
35043;DHT22;21230;51.170;17.024;2022-11-20T17:16:38;-1.00;99.90
35043;DHT22;21230;51.170;17.024;2022-11-20T17:19:04;-1.00;99.90
35043;DHT22;21230;51.170;17.024;2022-11-20T17:21:30;-1.10;99.90
35043;DHT22;21230;51.170;17.024;2022-11-20T17:23:58;-1.20;99.90
35043;DHT22;21230;51.170;17.024;2022-11-20T17:26:24;-1.40;99.90
35043;DHT22;21230;51.170;17.024;2022-11-20T17:31:23;-1.50;99.90
35043;DHT22;21230;51.170;17.024;2022-11-20T17:33:48;-1.60;99.90
35043;DHT22;21230;51.170;17.024;2022-11-20T17:36:15;-1.70;99.90
35043;DHT22;21230;51.170;17.024;2022-11-20T17:38:40;-1.70;99.90